MATER UKLL (LWO)

Остані дані METAR із Аеропорта UKLL (LWO)

L'Viv, Ukraine (UKLL) 49-49N 023-57E 323M
Aug 04, 2020 - 04:00 PM EDT / 2020.08.04 2000 UTC
Wind: from the ENE (070 degrees) at 2 MPH (2 KT):0
Visibility: greater than 7 mile(s):0
Temperature: 69 F (21 C)
Dew Point: 64 F (18 C)
Relative Humidity: 82%
Pressure (altimeter): 29.85 in. Hg (1011 hPa)
ob: UKLL 042000Z 07001MPS CAVOK 21/18 Q1011 R31/CLRD// NOSIG
cycle: 20